Time;durP1;ratioP1;P1;durP2;ratioP2;P2;SDS_P1;SDS_P2;PMS_P1;PMS_P2;Temp;Humidity;BMP_temperature;BMP_pressure;BME280_temperature;BME280_humidity;BME280_pressure;Samples;Min_cycle;Max_cycle;Signal;HPM_P1;HPM_P2
2021/04/23 11:21:39;;;;;;;6.23;4.47;;;19.20;43.00;;;;;;4249993;27;21028;-83
2021/04/23 11:24:14;;;;;;;6.63;5.17;;;19.80;39.50;;;;;;4902934;29;20970;-82
2021/04/23 11:27:05;;;;;;;5.93;5.33;;;20.10;38.90;;;;;;4899444;29;20471;-82
2021/04/23 11:29:34;;;;;;;6.80;4.90;;;20.30;38.90;;;;;;4881340;29;20462;-83
2021/04/23 11:32:16;;;;;;;8.40;4.90;;;20.80;41.50;;;;;;4880226;29;20832;-83
2021/04/23 11:34:45;;;;;;;6.57;4.50;;;21.40;39.00;;;;;;4881707;29;20498;-83
2021/04/23 11:37:15;;;;;;;5.00;4.60;;;22.10;38.30;;;;;;4880728;29;20999;-83
2021/04/23 11:39:48;;;;;;;5.87;5.10;;;22.40;35.30;;;;;;4880790;29;20806;-83
2021/04/23 11:42:25;;;;;;;6.07;4.60;;;22.20;33.60;;;;;;4880318;29;20526;-82
2021/04/23 11:45:05;;;;;;;5.70;5.20;;;22.20;34.30;;;;;;4882321;29;20454;-82
2021/04/23 12:00:17;;;;;;;4.57;4.17;;;23.70;31.20;;;;;;4773916;29;20459;-85
2021/04/23 12:03:23;;;;;;;;;;;;;;;;;;;;;
2021/04/23 12:09:27;;;;;;;5.47;4.73;;;25.10;30.50;;;;;;4774221;30;20540;-84
2021/04/23 12:12:43;;;;;;;;;;;;;;;;;;;;;
2021/04/23 12:15:34;;;;;;;6.37;4.40;;;25.70;27.50;;;;;;4825630;29;20514;-82
2021/04/23 12:18:08;;;;;;;6.37;4.50;;;26.00;28.10;;;;;;4824675;29;20552;-84
2021/04/23 12:24:16;;;;;;;4.60;4.20;;;26.00;27.70;;;;;;4882620;29;20480;-83
2021/04/23 12:27:27;;;;;;;4.73;4.00;;;25.60;26.00;;;;;;4878583;29;20495;-82
2021/04/23 12:29:55;;;;;;;4.40;3.77;;;25.60;24.90;;;;;;4895258;29;20492;-80
2021/04/23 12:32:22;;;;;;;4.33;3.70;;;25.60;25.00;;;;;;4898659;29;20458;-80
2021/04/23 12:34:48;;;;;;;4.93;3.70;;;25.70;26.10;;;;;;4912716;29;20513;-81
2021/04/23 12:43:21;;;;;;;4.93;4.40;;;27.20;24.10;;;;;;4805370;29;20459;-84
2021/04/23 12:48:38;;;;;;;3.73;3.33;;;26.60;24.20;;;;;;4841536;29;20792;-82
2021/04/23 12:51:41;;;;;;;3.53;3.17;;;25.90;21.60;;;;;;4892647;29;20455;-83
2021/04/23 12:54:09;;;;;;;3.40;2.83;;;25.80;22.70;;;;;;4910059;29;20492;-83
2021/04/23 12:56:40;;;;;;;4.60;3.87;;;26.30;22.00;;;;;;4892123;29;20611;-82
2021/04/23 12:59:34;;;;;;;3.57;3.30;;;27.10;24.50;;;;;;4895120;29;20497;-83
2021/04/23 13:02:03;;;;;;;4.47;4.07;;;28.00;23.00;;;;;;4891273;29;20528;-83
2021/04/23 13:04:29;;;;;;;5.70;4.67;;;28.50;22.70;;;;;;4892625;29;20453;-82
2021/04/23 13:07:07;;;;;;;4.27;3.80;;;28.80;23.40;;;;;;4890186;29;20463;-82
2021/04/23 13:10:06;;;;;;;4.43;3.67;;;28.90;21.80;;;;;;4877077;29;20463;-83
2021/04/23 13:12:36;;;;;;;4.37;3.97;;;28.40;21.30;;;;;;4893440;29;20537;-81
2021/04/23 13:15:05;;;;;;;4.40;2.87;;;28.40;23.30;;;;;;4886452;29;20620;-81
2021/04/23 13:17:39;;;;;;;3.67;3.37;;;28.40;21.00;;;;;;4886404;29;20503;-80
2021/04/23 13:20:17;;;;;;;7.80;4.70;;;28.50;21.70;;;;;;4888472;29;20467;-83
2021/04/23 13:23:00;;;;;;;3.77;3.40;;;28.50;21.20;;;;;;4894595;29;20533;-84
2021/04/23 13:25:31;;;;;;;4.80;3.67;;;29.00;21.00;;;;;;4888729;29;20455;-83
2021/04/23 13:28:13;;;;;;;3.83;3.40;;;28.70;20.70;;;;;;4888811;29;20541;-80
2021/04/23 13:30:43;;;;;;;4.90;4.40;;;28.10;21.40;;;;;;4891817;29;20447;-83
2021/04/23 13:33:17;;;;;;;5.17;4.20;;;28.40;22.20;;;;;;4888981;29;21004;-81
2021/04/23 13:35:46;;;;;;;4.20;3.90;;;28.60;21.00;;;;;;4889587;29;20497;-82
2021/04/23 13:38:24;;;;;;;6.23;5.73;;;28.80;23.00;;;;;;4890862;29;20501;-82
2021/04/23 13:40:53;;;;;;;5.37;4.73;;;28.90;22.80;;;;;;4886043;29;21101;-81
2021/04/23 13:43:23;;;;;;;5.00;4.07;;;29.10;21.20;;;;;;4887470;29;20453;-82
2021/04/23 13:45:58;;;;;;;4.83;4.23;;;28.50;21.40;;;;;;4888632;29;20587;-81
2021/04/23 13:48:28;;;;;;;4.80;4.00;;;28.70;21.60;;;;;;4891459;29;20489;-83
2021/04/23 13:50:57;;;;;;;4.73;4.30;;;29.00;22.00;;;;;;4889962;29;20519;-82
2021/04/23 13:53:33;;;;;;;5.77;4.07;;;28.90;20.20;;;;;;4888121;29;20543;-81
2021/04/23 13:56:19;;;;;;;6.40;4.50;;;27.90;21.10;;;;;;4885659;29;20971;-85
2021/04/23 13:59:16;;;;;;;4.57;4.17;;;26.90;20.40;;;;;;4883188;29;20480;-83
2021/04/23 14:01:50;;;;;;;5.77;4.73;;;26.20;21.70;;;;;;4888449;29;20497;-82
2021/04/23 14:04:19;;;;;;;5.30;3.90;;;25.50;20.60;;;;;;4887241;29;20520;-80
2021/04/23 14:06:45;;;;;;;4.30;3.90;;;25.20;21.90;;;;;;4885670;29;20457;-81
2021/04/23 14:09:14;;;;;;;5.77;4.20;;;25.20;22.10;;;;;;4886889;29;20488;-81
2021/04/23 14:12:19;;;;;;;6.57;4.90;;;25.40;22.10;;;;;;4885674;29;20472;-83
2021/04/23 14:14:48;;;;;;;7.40;3.90;;;25.70;22.40;;;;;;4875438;29;20480;-83
2021/04/23 14:17:18;;;;;;;4.00;3.70;;;25.90;23.20;;;;;;4902455;29;20465;-82
2021/04/23 14:20:08;;;;;;;4.53;4.23;;;26.60;23.60;;;;;;4888999;29;20840;-84
2021/04/23 14:22:58;;;;;;;;;;;;;;;;;;;;;
2021/04/23 14:25:47;;;;;;;6.20;4.30;;;28.50;21.40;;;;;;4872760;29;20542;-81
2021/04/23 14:34:44;;;;;;;4.00;3.70;;;29.90;21.80;;;;;;4771630;29;20559;-81
2021/04/23 14:37:14;;;;;;;6.03;5.10;;;30.60;20.90;;;;;;4887088;29;20472;-81
2021/04/23 14:40:13;;;;;;;;;;;;;;;;;;;;;
2021/04/23 14:46:01;;;;;;;5.27;4.77;;;30.10;19.80;;;;;;4742313;30;20462;-82
2021/04/23 14:49:12;;;;;;;5.00;4.50;;;29.40;19.60;;;;;;4771282;30;21264;-83
2021/04/23 14:51:40;;;;;;;4.53;4.13;;;28.50;19.40;;;;;;4881901;29;20483;-82
2021/04/23 14:54:06;;;;;;;4.83;4.17;;;28.20;20.40;;;;;;4885330;29;20502;-80
2021/04/23 14:59:57;;;;;;;3.80;3.50;;;28.80;20.20;;;;;;4832638;29;20503;-82
2021/04/23 15:02:26;;;;;;;5.93;4.50;;;28.80;19.90;;;;;;4896909;29;20452;-82
2021/04/23 15:04:56;;;;;;;4.97;4.27;;;29.20;21.50;;;;;;4896131;29;20460;-84
2021/04/23 15:07:28;;;;;;;4.77;4.23;;;29.80;20.70;;;;;;4890268;29;20522;-85
2021/04/23 15:10:04;;;;;;;6.43;5.10;;;30.00;19.80;;;;;;4889767;29;20457;-84
2021/04/23 15:12:30;;;;;;;5.10;4.40;;;29.90;19.40;;;;;;4893246;29;20595;-83
2021/04/23 15:15:11;;;;;;;6.60;4.10;;;30.00;19.60;;;;;;4893663;29;20503;-85
2021/04/23 15:18:14;;;;;;;6.93;5.90;;;30.20;19.90;;;;;;4888912;29;20504;-82
2021/04/23 15:20:54;;;;;;;8.87;5.57;;;30.00;18.70;;;;;;4891849;29;20473;-82
2021/04/23 15:23:45;;;;;;;5.60;4.73;;;29.70;20.10;;;;;;4892844;29;20457;-82
2021/04/23 15:26:12;;;;;;;7.10;4.93;;;28.80;20.40;;;;;;4887880;29;20452;-84
2021/04/23 15:28:38;;;;;;;7.20;5.90;;;28.30;19.60;;;;;;4888033;29;20611;-85
2021/04/23 15:31:14;;;;;;;7.07;6.30;;;27.10;21.30;;;;;;4892396;29;20462;-82
2021/04/23 15:33:41;;;;;;;6.70;4.60;;;27.10;22.00;;;;;;4891215;29;20469;-84
2021/04/23 19:05:07;;;;;;;8.83;7.33;;;14.90;38.50;;;;;;3171955;26;20476;-80
2021/04/23 19:07:33;;;;;;;9.37;7.20;;;14.70;38.80;;;;;;4961565;28;20466;-79
2021/04/23 19:10:00;;;;;;;9.87;8.87;;;14.60;39.40;;;;;;4943428;29;20453;-78
2021/04/23 19:12:26;;;;;;;9.87;6.93;;;14.40;39.60;;;;;;4942675;29;20438;-77
2021/04/23 19:14:53;;;;;;;7.67;6.87;;;14.30;39.90;;;;;;4935519;29;21021;-78
2021/04/23 19:17:19;;;;;;;8.00;6.10;;;14.20;40.20;;;;;;4936177;29;20474;-79
2021/04/23 19:19:45;;;;;;;8.80;6.87;;;14.20;40.60;;;;;;4933655;29;20480;-79
2021/04/23 19:22:13;;;;;;;6.87;6.27;;;14.10;40.60;;;;;;4927824;29;20451;-79
2021/04/23 19:24:40;;;;;;;6.07;5.53;;;13.90;41.10;;;;;;4938306;29;20442;-79
2021/04/23 19:27:06;;;;;;;7.60;5.77;;;13.80;41.50;;;;;;4941218;29;20473;-79
2021/04/23 19:29:33;;;;;;;7.50;5.60;;;13.70;41.60;;;;;;4934651;29;20450;-79
2021/04/23 19:32:00;;;;;;;9.30;5.50;;;13.60;41.60;;;;;;4941351;29;20465;-79
2021/04/23 19:34:27;;;;;;;6.80;5.17;;;13.50;41.80;;;;;;4933239;29;20541;-79
2021/04/23 19:36:53;;;;;;;7.33;6.10;;;13.40;42.30;;;;;;4922772;29;20435;-80
2021/04/23 19:39:21;;;;;;;8.33;5.43;;;13.40;42.60;;;;;;4920331;29;20482;-78
2021/04/23 19:41:47;;;;;;;6.47;5.43;;;13.30;42.80;;;;;;4926555;29;20450;-79
2021/04/23 19:44:14;;;;;;;5.77;4.93;;;13.20;42.60;;;;;;4929006;29;20543;-79
2021/04/23 19:46:41;;;;;;;6.63;5.77;;;13.20;42.40;;;;;;4929501;29;20456;-79
2021/04/23 19:49:07;;;;;;;5.97;5.57;;;13.10;42.30;;;;;;4931990;29;20507;-78
2021/04/23 19:51:33;;;;;;;6.20;5.70;;;13.00;42.80;;;;;;4930786;29;20427;-78
2021/04/23 19:53:59;;;;;;;7.73;5.50;;;13.00;43.70;;;;;;4927798;29;20480;-80
2021/04/23 19:56:31;;;;;;;11.10;8.47;;;12.90;43.70;;;;;;4931434;29;20457;-80
2021/04/23 19:59:01;;;;;;;6.23;5.40;;;12.80;43.80;;;;;;4933222;29;20997;-81
2021/04/23 20:01:29;;;;;;;8.50;5.43;;;12.80;44.30;;;;;;4933069;29;20446;-78
2021/04/23 20:04:12;;;;;;;6.73;6.03;;;12.70;44.60;;;;;;4926367;29;20494;-78
2021/04/23 20:06:44;;;;;;;10.23;5.67;;;12.60;44.80;;;;;;4929148;29;20482;-79
2021/04/23 20:09:11;;;;;;;8.10;6.07;;;12.50;44.80;;;;;;4939906;29;20473;-78
2021/04/23 20:11:39;;;;;;;6.90;5.60;;;12.40;44.80;;;;;;4939829;29;20448;-80
2021/04/23 20:14:05;;;;;;;8.60;6.50;;;12.30;44.80;;;;;;4938614;29;20454;-78
2021/04/23 20:16:35;;;;;;;6.10;4.50;;;12.20;45.00;;;;;;4929769;29;20450;-78
2021/04/23 20:19:01;;;;;;;4.90;4.00;;;12.10;45.10;;;;;;4924716;29;20484;-77
2021/04/23 20:21:29;;;;;;;5.37;4.80;;;12.00;45.20;;;;;;4934503;29;20536;-79
2021/04/23 20:23:55;;;;;;;4.67;4.20;;;12.00;45.60;;;;;;4933842;29;20454;-79
2021/04/23 20:26:23;;;;;;;13.00;4.60;;;11.90;45.80;;;;;;4929920;29;20537;-81
2021/04/23 20:28:53;;;;;;;5.30;4.10;;;11.90;45.80;;;;;;4926911;29;20530;-80
2021/04/23 20:31:25;;;;;;;5.10;3.47;;;11.90;45.60;;;;;;4928738;29;20464;-82
2021/04/23 20:33:55;;;;;;;5.03;4.53;;;11.80;45.80;;;;;;4932784;29;20497;-81
2021/04/23 20:36:22;;;;;;;5.57;4.10;;;11.70;45.90;;;;;;4923923;29;20509;-79
2021/04/23 20:38:48;;;;;;;6.00;4.30;;;11.60;46.40;;;;;;4930765;29;20472;-82
2021/04/23 20:41:18;;;;;;;4.93;3.53;;;11.60;46.20;;;;;;4927089;29;20485;-80
2021/04/23 20:43:44;;;;;;;4.80;4.30;;;11.50;45.80;;;;;;4928338;29;20515;-82
2021/04/23 20:46:19;;;;;;;5.20;3.47;;;11.50;45.40;;;;;;4933837;29;20531;-81
2021/04/23 20:48:51;;;;;;;4.57;4.17;;;11.60;45.90;;;;;;4929331;29;20469;-82
2021/04/23 20:51:19;;;;;;;6.37;4.27;;;11.60;46.40;;;;;;4931337;29;20440;-80
2021/04/23 20:53:46;;;;;;;6.90;4.90;;;11.50;47.20;;;;;;4932869;29;20902;-79
2021/04/23 20:56:15;;;;;;;6.03;4.83;;;11.40;48.00;;;;;;4941736;29;20495;-80
2021/04/23 20:58:41;;;;;;;4.90;4.50;;;11.50;48.60;;;;;;4943509;29;20476;-79
2021/04/23 21:01:07;;;;;;;6.33;4.47;;;11.40;48.50;;;;;;4944779;29;20467;-79
2021/04/23 21:03:36;;;;;;;6.03;5.20;;;11.40;48.80;;;;;;4944571;29;20491;-79
2021/04/23 21:06:03;;;;;;;5.63;4.83;;;11.30;49.20;;;;;;4944385;29;20500;-80
2021/04/23 21:08:32;;;;;;;6.10;5.33;;;11.30;49.60;;;;;;4936266;29;20466;-82
2021/04/23 21:11:00;;;;;;;6.00;5.40;;;11.20;49.80;;;;;;4931091;29;20454;-81
2021/04/23 21:13:27;;;;;;;9.73;5.37;;;11.20;50.20;;;;;;4934857;29;20627;-81
2021/04/23 21:15:55;;;;;;;7.47;5.90;;;11.20;50.60;;;;;;4932846;29;20467;-80
2021/04/23 21:18:25;;;;;;;5.87;5.30;;;11.10;50.30;;;;;;4935880;29;20456;-80
2021/04/23 21:20:52;;;;;;;5.53;5.00;;;11.10;50.40;;;;;;4937540;29;20481;-80
2021/04/23 21:23:29;;;;;;;6.57;4.40;;;11.00;50.10;;;;;;4939801;29;20456;-82
2021/04/23 21:25:58;;;;;;;8.17;6.17;;;11.00;50.80;;;;;;4932590;29;20428;-80
2021/04/23 21:28:26;;;;;;;5.70;4.63;;;10.90;51.20;;;;;;4932664;29;20457;-80
2021/04/23 21:30:56;;;;;;;6.00;5.40;;;10.90;51.50;;;;;;4936857;29;20453;-80
2021/04/23 21:33:22;;;;;;;7.13;4.80;;;10.80;51.80;;;;;;4936813;29;21018;-80
2021/04/23 21:35:49;;;;;;;6.23;4.60;;;10.70;52.00;;;;;;4933617;29;20489;-80
2021/04/23 21:38:23;;;;;;;5.70;5.17;;;10.60;52.00;;;;;;4933763;29;20471;-81
2021/04/23 21:40:50;;;;;;;4.00;3.40;;;10.60;52.00;;;;;;4934626;29;20872;-79
2021/04/23 21:43:16;;;;;;;4.10;3.30;;;10.60;50.50;;;;;;4932130;29;20861;-80
2021/04/23 21:45:42;;;;;;;5.43;3.93;;;10.60;51.10;;;;;;4930682;29;20452;-80
2021/04/23 21:48:11;;;;;;;8.00;5.20;;;10.50;50.50;;;;;;4934435;29;20474;-80
2021/04/23 21:50:38;;;;;;;5.00;4.60;;;10.50;50.40;;;;;;4932876;29;20475;-80
2021/04/23 21:53:15;;;;;;;5.10;4.43;;;10.50;50.20;;;;;;4934225;29;20464;-80
2021/04/23 21:55:44;;;;;;;7.13;5.33;;;10.50;49.60;;;;;;4930023;29;20522;-80
2021/04/23 21:58:10;;;;;;;5.20;4.70;;;10.50;49.30;;;;;;4929101;29;20490;-80
2021/04/23 22:00:37;;;;;;;9.27;4.47;;;10.50;49.00;;;;;;4933707;29;20449;-80
2021/04/23 22:03:03;;;;;;;5.83;4.23;;;10.50;49.00;;;;;;4931779;29;20457;-80
2021/04/23 22:05:30;;;;;;;6.13;4.53;;;10.50;48.80;;;;;;4939935;29;20441;-80
2021/04/23 22:07:56;;;;;;;5.93;4.70;;;10.50;48.70;;;;;;4942676;29;20455;-80
2021/04/23 22:10:22;;;;;;;6.40;5.20;;;10.50;48.60;;;;;;4943579;29;20456;-80
2021/04/23 22:12:50;;;;;;;9.23;5.73;;;10.50;48.50;;;;;;4942863;29;20464;-80
2021/04/23 22:15:20;;;;;;;5.93;4.87;;;10.50;48.50;;;;;;4943580;29;20545;-80
2021/04/23 22:17:53;;;;;;;5.57;4.97;;;10.60;48.60;;;;;;4942963;29;20469;-80
2021/04/23 22:20:19;;;;;;;6.70;4.90;;;10.60;48.50;;;;;;4943066;29;20444;-80
2021/04/23 22:22:46;;;;;;;6.53;4.77;;;10.60;48.50;;;;;;4942871;29;20464;-80
2021/04/23 22:25:14;;;;;;;5.00;4.50;;;10.60;48.30;;;;;;4943114;29;20457;-80
2021/04/23 22:27:42;;;;;;;5.60;4.33;;;10.60;48.30;;;;;;4943278;29;20464;-79
2021/04/23 22:30:13;;;;;;;6.30;5.50;;;10.70;48.40;;;;;;4943568;29;20503;-80
2021/04/23 22:32:40;;;;;;;5.93;4.73;;;10.60;48.40;;;;;;4942822;29;20492;-80
2021/04/23 22:35:10;;;;;;;6.27;5.67;;;10.70;48.50;;;;;;4942717;29;20498;-80
2021/04/23 22:37:44;;;;;;;5.77;5.27;;;10.70;48.70;;;;;;4942868;29;21064;-80
2021/04/23 22:40:34;;;;;;;5.60;5.10;;;10.60;48.70;;;;;;4943313;29;20440;-80
2021/04/23 22:43:11;;;;;;;6.53;4.50;;;10.60;48.80;;;;;;4942328;29;20541;-80
2021/04/23 22:45:57;;;;;;;4.68;4.28;;;10.60;49.10;;;;;;4942306;29;20444;-80
2021/04/23 22:48:51;;;;;;;;;;;;;;;;;;;;;
2021/04/23 22:51:22;;;;;;;5.63;4.40;;;10.50;49.60;;;;;;4942873;29;20537;-80
2021/04/23 22:54:01;;;;;;;8.67;4.97;;;10.50;49.80;;;;;;4942255;29;20464;-80
2021/04/23 23:00:09;;;;;;;4.17;3.70;;;10.40;50.20;;;;;;4863380;29;21094;-81
2021/04/23 23:02:54;;;;;;;6.83;4.67;;;10.40;50.70;;;;;;4939459;29;20579;-80
2021/04/23 23:05:29;;;;;;;5.50;5.00;;;10.30;51.00;;;;;;4948376;29;20454;-78
2021/04/23 23:07:56;;;;;;;4.90;4.50;;;10.30;51.60;;;;;;4947480;29;20471;-78
2021/04/23 23:10:24;;;;;;;6.10;4.40;;;10.20;51.90;;;;;;4947253;29;20450;-78
2021/04/23 23:12:51;;;;;;;5.13;4.63;;;10.10;52.20;;;;;;4944182;29;20429;-80
2021/04/23 23:15:18;;;;;;;6.60;5.57;;;10.10;52.70;;;;;;4941761;29;20577;-80
2021/04/23 23:17:46;;;;;;;4.67;4.27;;;10.00;52.80;;;;;;4942600;29;20603;-79
2021/04/23 23:20:13;;;;;;;6.97;6.20;;;10.00;53.30;;;;;;4941196;29;20479;-80
2021/04/23 23:22:39;;;;;;;7.05;5.40;;;9.90;54.30;;;;;;4941903;29;20460;-80
2021/04/23 23:25:07;;;;;;;6.57;5.40;;;9.80;54.60;;;;;;4940235;29;20206;-81
2021/04/23 23:27:34;;;;;;;6.05;5.45;;;9.80;54.60;;;;;;4940180;29;20237;-81
2021/04/23 23:30:01;;;;;;;7.70;5.10;;;9.70;54.40;;;;;;4940623;29;20212;-82
2021/04/23 23:32:27;;;;;;;7.00;5.10;;;9.60;54.70;;;;;;4940474;29;20941;-80
2021/04/23 23:34:54;;;;;;;6.10;5.50;;;9.60;55.20;;;;;;4940203;29;20490;-81
2021/04/23 23:37:21;;;;;;;5.53;4.95;;;9.50;55.50;;;;;;4940165;29;20242;-82
2021/04/23 23:39:47;;;;;;;7.00;5.00;;;9.50;55.40;;;;;;4940238;29;20266;-82
2021/04/23 23:42:14;;;;;;;8.33;6.43;;;9.40;55.70;;;;;;4940103;29;20214;-80
2021/04/23 23:44:41;;;;;;;6.60;5.60;;;9.30;56.00;;;;;;4939867;29;20462;-81
2021/04/23 23:47:07;;;;;;;6.32;5.15;;;9.20;56.60;;;;;;4939850;29;20207;-81
2021/04/23 23:49:33;;;;;;;7.95;3.95;;;9.20;56.90;;;;;;4939979;29;20581;-81
2021/04/23 23:52:01;;;;;;;5.60;5.10;;;9.10;56.90;;;;;;4939785;29;20207;-81
2021/04/23 23:54:27;;;;;;;6.25;5.28;;;9.10;57.10;;;;;;4939783;29;20207;-82
2021/04/23 23:56:53;;;;;;;6.20;5.60;;;9.00;57.00;;;;;;4939584;29;20225;-81
2021/04/23 23:59:20;;;;;;;5.43;4.93;;;8.90;56.90;;;;;;4939753;29;20257;-81
